Terminal Aerodrome Forecast
Issued by NWS

Home | Current Version | Previous Version | Text Only | Print | Product List | Glossary On
Versions: 1 2 3 4 5 6 7 8 9 10 11 12 13 14 15 16 17 18 19 20 21 22 23 24 25 26 27 28 29 30 31 32 33 34 35 36 37 38
000
FTUS43 KLOT 311009 AAB
TAFORD
TAF AMD
KORD 311009Z 3110/0112 00000KT 1SM BR SCT006
      TEMPO 3110/3113 1/2SM FG BKN006
     FM311300 20003KT P6SM SKC
     FM312100 11006KT P6SM FEW050
     FM010200 19004KT P6SM FEW050=

USA.gov is the U.S. government's official web portal to all federal, state and local government web resources and services.